sensor_id;sensor_type;location;lat;lon;timestamp;pressure;altitude;pressure_sealevel;temperature;humidity
37206;BME280;23099;42.636;23.198;2023-09-18T00:02:21;92494.63;;;15.59;100.00
37206;BME280;23099;42.636;23.198;2023-09-18T00:04:47;92485.75;;;15.54;100.00
37206;BME280;23099;42.636;23.198;2023-09-18T00:07:14;92485.66;;;15.44;100.00
37206;BME280;23099;42.636;23.198;2023-09-18T00:09:42;92481.44;;;15.39;100.00
37206;BME280;23099;42.636;23.198;2023-09-18T00:12:09;92483.72;;;15.37;100.00
37206;BME280;23099;42.636;23.198;2023-09-18T00:14:36;92486.38;;;15.30;100.00
37206;BME280;23099;42.636;23.198;2023-09-18T00:17:03;92479.44;;;15.26;100.00
37206;BME280;23099;42.636;23.198;2023-09-18T00:19:30;92485.59;;;15.26;100.00
37206;BME280;23099;42.636;23.198;2023-09-18T00:21:58;92474.03;;;15.22;100.00
37206;BME280;23099;42.636;23.198;2023-09-18T00:24:26;92485.94;;;15.14;100.00
37206;BME280;23099;42.636;23.198;2023-09-18T00:26:54;92477.81;;;15.10;100.00
37206;BME280;23099;42.636;23.198;2023-09-18T00:29:20;92478.56;;;15.07;100.00
37206;BME280;23099;42.636;23.198;2023-09-18T00:31:47;92489.78;;;15.13;100.00
37206;BME280;23099;42.636;23.198;2023-09-18T00:34:14;92482.06;;;15.15;100.00
37206;BME280;23099;42.636;23.198;2023-09-18T00:36:40;92480.91;;;15.09;100.00
37206;BME280;23099;42.636;23.198;2023-09-18T00:39:07;92487.38;;;15.01;100.00
37206;BME280;23099;42.636;23.198;2023-09-18T00:41:34;92492.75;;;14.97;100.00
37206;BME280;23099;42.636;23.198;2023-09-18T00:44:02;92488.47;;;14.93;100.00
37206;BME280;23099;42.636;23.198;2023-09-18T00:46:31;92488.06;;;14.83;100.00
37206;BME280;23099;42.636;23.198;2023-09-18T00:48:57;92482.56;;;14.73;100.00
37206;BME280;23099;42.636;23.198;2023-09-18T00:51:25;92488.00;;;14.76;100.00
37206;BME280;23099;42.636;23.198;2023-09-18T00:53:52;92492.19;;;14.74;100.00
37206;BME280;23099;42.636;23.198;2023-09-18T00:56:20;92480.66;;;14.73;100.00
37206;BME280;23099;42.636;23.198;2023-09-18T00:58:47;92488.00;;;14.76;100.00
37206;BME280;23099;42.636;23.198;2023-09-18T01:01:18;92485.72;;;14.82;100.00
37206;BME280;23099;42.636;23.198;2023-09-18T01:03:48;92493.44;;;14.83;100.00
37206;BME280;23099;42.636;23.198;2023-09-18T01:06:15;92497.28;;;14.86;100.00
37206;BME280;23099;42.636;23.198;2023-09-18T01:08:44;92500.38;;;14.88;100.00
37206;BME280;23099;42.636;23.198;2023-09-18T01:11:17;92495.75;;;14.89;100.00
37206;BME280;23099;42.636;23.198;2023-09-18T01:13:51;92497.28;;;14.86;100.00
37206;BME280;23099;42.636;23.198;2023-09-18T01:16:25;92503.44;;;14.86;100.00
37206;BME280;23099;42.636;23.198;2023-09-18T01:18:53;92502.28;;;14.84;100.00
37206;BME280;23099;42.636;23.198;2023-09-18T01:21:20;92504.13;;;14.76;100.00
37206;BME280;23099;42.636;23.198;2023-09-18T01:23:48;92486.03;;;14.73;100.00
37206;BME280;23099;42.636;23.198;2023-09-18T01:26:16;92496.88;;;14.80;100.00
37206;BME280;23099;42.636;23.198;2023-09-18T01:28:43;92493.03;;;14.81;100.00
37206;BME280;23099;42.636;23.198;2023-09-18T01:31:10;92487.66;;;14.81;100.00
37206;BME280;23099;42.636;23.198;2023-09-18T01:33:37;92489.56;;;14.81;100.00
37206;BME280;23099;42.636;23.198;2023-09-18T01:36:06;92484.22;;;14.88;100.00
37206;BME280;23099;42.636;23.198;2023-09-18T01:38:33;92495.00;;;14.92;100.00
37206;BME280;23099;42.636;23.198;2023-09-18T01:41:03;92495.44;;;14.97;100.00
37206;BME280;23099;42.636;23.198;2023-09-18T01:43:29;92497.72;;;14.95;100.00
37206;BME280;23099;42.636;23.198;2023-09-18T01:45:57;92492.34;;;14.95;100.00
37206;BME280;23099;42.636;23.198;2023-09-18T01:48:24;92495.41;;;14.94;100.00
37206;BME280;23099;42.636;23.198;2023-09-18T01:50:51;92490.41;;;14.92;100.00
37206;BME280;23099;42.636;23.198;2023-09-18T01:53:17;92497.31;;;14.90;100.00
37206;BME280;23099;42.636;23.198;2023-09-18T01:55:44;92498.06;;;14.90;100.00
37206;BME280;23099;42.636;23.198;2023-09-18T01:58:13;92503.06;;;14.84;100.00
37206;BME280;23099;42.636;23.198;2023-09-18T02:00:40;92498.38;;;14.78;100.00
37206;BME280;23099;42.636;23.198;2023-09-18T02:03:07;92494.91;;;14.77;100.00
37206;BME280;23099;42.636;23.198;2023-09-18T02:05:34;92501.06;;;14.78;100.00
37206;BME280;23099;42.636;23.198;2023-09-18T02:08:02;92509.91;;;14.78;100.00
37206;BME280;23099;42.636;23.198;2023-09-18T02:10:29;92506.44;;;14.78;100.00
37206;BME280;23099;42.636;23.198;2023-09-18T02:12:56;92499.13;;;14.75;100.00
37206;BME280;23099;42.636;23.198;2023-09-18T02:15:24;92502.19;;;14.73;100.00
37206;BME280;23099;42.636;23.198;2023-09-18T02:17:50;92503.72;;;14.74;100.00
37206;BME280;23099;42.636;23.198;2023-09-18T02:20:18;92501.06;;;14.78;100.00
37206;BME280;23099;42.636;23.198;2023-09-18T02:22:45;92501.44;;;14.76;100.00
37206;BME280;23099;42.636;23.198;2023-09-18T02:25:12;92504.13;;;14.76;100.00
37206;BME280;23099;42.636;23.198;2023-09-18T02:27:39;92494.88;;;14.70;100.00
37206;BME280;23099;42.636;23.198;2023-09-18T02:30:06;92499.44;;;14.66;100.00
37206;BME280;23099;42.636;23.198;2023-09-18T02:32:36;92495.97;;;14.62;100.00
37206;BME280;23099;42.636;23.198;2023-09-18T02:35:03;92493.28;;;14.66;100.00
37206;BME280;23099;42.636;23.198;2023-09-18T02:37:32;92497.50;;;14.63;100.00
37206;BME280;23099;42.636;23.198;2023-09-18T02:39:59;92499.75;;;14.58;100.00
37206;BME280;23099;42.636;23.198;2023-09-18T02:42:25;92493.25;;;14.62;100.00
37206;BME280;23099;42.636;23.198;2023-09-18T02:44:52;92492.53;;;14.65;100.00
37206;BME280;23099;42.636;23.198;2023-09-18T02:47:19;92500.22;;;14.67;100.00
37206;BME280;23099;42.636;23.198;2023-09-18T02:49:47;92498.28;;;14.64;100.00
37206;BME280;23099;42.636;23.198;2023-09-18T02:52:14;92500.19;;;14.63;100.00
37206;BME280;23099;42.636;23.198;2023-09-18T02:54:40;92499.38;;;14.56;100.00
37206;BME280;23099;42.636;23.198;2023-09-18T02:57:07;92506.31;;;14.60;100.00
37206;BME280;23099;42.636;23.198;2023-09-18T02:59:34;92510.53;;;14.61;100.00
37206;BME280;23099;42.636;23.198;2023-09-18T03:02:00;92503.97;;;14.55;100.00
37206;BME280;23099;42.636;23.198;2023-09-18T03:04:29;92505.53;;;14.56;100.00
37206;BME280;23099;42.636;23.198;2023-09-18T03:06:57;92510.91;;;14.56;100.00
37206;BME280;23099;42.636;23.198;2023-09-18T03:09:24;92503.94;;;14.52;100.00
37206;BME280;23099;42.636;23.198;2023-09-18T03:11:50;92505.53;;;14.56;100.00
37206;BME280;23099;42.636;23.198;2023-09-18T03:14:17;92506.31;;;14.57;100.00
37206;BME280;23099;42.636;23.198;2023-09-18T03:16:44;92501.69;;;14.61;100.00
37206;BME280;23099;42.636;23.198;2023-09-18T03:19:10;92503.94;;;14.52;100.00
37206;BME280;23099;42.636;23.198;2023-09-18T03:21:37;92505.88;;;14.51;100.00
37206;BME280;23099;42.636;23.198;2023-09-18T03:24:06;92493.88;;;14.41;100.00
37206;BME280;23099;42.636;23.198;2023-09-18T03:26:33;92496.22;;;14.46;100.00
37206;BME280;23099;42.636;23.198;2023-09-18T03:29:00;92496.25;;;14.50;100.00
37206;BME280;23099;42.636;23.198;2023-09-18T03:31:26;92499.38;;;14.56;100.00
37206;BME280;23099;42.636;23.198;2023-09-18T03:33:54;92500.53;;;14.58;100.00
37206;BME280;23099;42.636;23.198;2023-09-18T03:36:21;92488.69;;;14.66;100.00
37206;BME280;23099;42.636;23.198;2023-09-18T03:38:48;92493.34;;;14.69;100.00
37206;BME280;23099;42.636;23.198;2023-09-18T03:41:16;92486.06;;;14.77;100.00
37206;BME280;23099;42.636;23.198;2023-09-18T03:43:43;92486.84;;;14.77;100.00
37206;BME280;23099;42.636;23.198;2023-09-18T03:46:10;92483.75;;;14.75;100.00
37206;BME280;23099;42.636;23.198;2023-09-18T03:48:37;92484.16;;;14.77;100.00
37206;BME280;23099;42.636;23.198;2023-09-18T03:51:04;92475.69;;;14.75;100.00
37206;BME280;23099;42.636;23.198;2023-09-18T03:53:31;92486.41;;;14.68;100.00
37206;BME280;23099;42.636;23.198;2023-09-18T03:55:58;92477.91;;;14.63;100.00
37206;BME280;23099;42.636;23.198;2023-09-18T03:58:26;92477.53;;;14.64;100.00
37206;BME280;23099;42.636;23.198;2023-09-18T04:00:53;92480.56;;;14.56;100.00
37206;BME280;23099;42.636;23.198;2023-09-18T04:03:20;92472.81;;;14.50;100.00
37206;BME280;23099;42.636;23.198;2023-09-18T04:05:46;92482.47;;;14.55;100.00
37206;BME280;23099;42.636;23.198;2023-09-18T04:08:13;92484.78;;;14.60;100.00
37206;BME280;23099;42.636;23.198;2023-09-18T04:10:40;92485.53;;;14.57;100.00
37206;BME280;23099;42.636;23.198;2023-09-18T04:13:06;92487.84;;;14.55;100.00
37206;BME280;23099;42.636;23.198;2023-09-18T04:15:35;92497.47;;;14.56;100.00
37206;BME280;23099;42.636;23.198;2023-09-18T04:18:03;92489.34;;;14.53;100.00
37206;BME280;23099;42.636;23.198;2023-09-18T04:20:30;92500.53;;;14.55;100.00
37206;BME280;23099;42.636;23.198;2023-09-18T04:23:20;92500.06;;;14.49;100.00
37206;BME280;23099;42.636;23.198;2023-09-18T04:25:48;92494.25;;;14.43;100.00
37206;BME280;23099;42.636;23.198;2023-09-18T04:28:16;92493.88;;;14.41;100.00
37206;BME280;23099;42.636;23.198;2023-09-18T04:30:45;92502.31;;;14.43;100.00
37206;BME280;23099;42.636;23.198;2023-09-18T04:33:12;92496.16;;;14.43;100.00
37206;BME280;23099;42.636;23.198;2023-09-18T04:35:39;92505.78;;;14.40;100.00
37206;BME280;23099;42.636;23.198;2023-09-18T04:38:06;92511.94;;;14.41;100.00
37206;BME280;23099;42.636;23.198;2023-09-18T04:40:33;92505.72;;;14.37;100.00
37206;BME280;23099;42.636;23.198;2023-09-18T04:43:00;92498.50;;;14.41;100.00
37206;BME280;23099;42.636;23.198;2023-09-18T04:45:28;92510.41;;;14.43;100.00
37206;BME280;23099;42.636;23.198;2023-09-18T04:47:56;92504.25;;;14.43;100.00
37206;BME280;23099;42.636;23.198;2023-09-18T04:50:23;92507.63;;;14.36;100.00
37206;BME280;23099;42.636;23.198;2023-09-18T04:52:51;92508.72;;;14.28;100.00
37206;BME280;23099;42.636;23.198;2023-09-18T04:55:19;92506.78;;;14.29;100.00
37206;BME280;23099;42.636;23.198;2023-09-18T04:57:46;92510.63;;;14.28;100.00
37206;BME280;23099;42.636;23.198;2023-09-18T05:00:14;92505.69;;;14.33;100.00
37206;BME280;23099;42.636;23.198;2023-09-18T05:02:41;92502.16;;;14.29;100.00
37206;BME280;23099;42.636;23.198;2023-09-18T05:05:10;92508.41;;;14.37;100.00
37206;BME280;23099;42.636;23.198;2023-09-18T05:07:36;92505.78;;;14.40;100.00
37206;BME280;23099;42.636;23.198;2023-09-18T05:10:04;92505.41;;;14.42;100.00
37206;BME280;23099;42.636;23.198;2023-09-18T05:12:31;92499.63;;;14.40;100.00
37206;BME280;23099;42.636;23.198;2023-09-18T05:14:57;92514.63;;;14.44;100.00
37206;BME280;23099;42.636;23.198;2023-09-18T05:17:40;92512.34;;;14.46;100.00
37206;BME280;23099;42.636;23.198;2023-09-18T05:20:10;92517.72;;;14.46;100.00
37206;BME280;23099;42.636;23.198;2023-09-18T05:22:39;92525.47;;;14.52;100.00
37206;BME280;23099;42.636;23.198;2023-09-18T05:25:06;92518.53;;;14.50;100.00
37206;BME280;23099;42.636;23.198;2023-09-18T05:27:33;92526.56;;;14.47;100.00
37206;BME280;23099;42.636;23.198;2023-09-18T05:29:59;92520.78;;;14.45;100.00
37206;BME280;23099;42.636;23.198;2023-09-18T05:32:26;92519.16;;;14.37;100.00
37206;BME280;23099;42.636;23.198;2023-09-18T05:34:53;92521.03;;;14.33;100.00
37206;BME280;23099;42.636;23.198;2023-09-18T05:37:21;92520.72;;;14.38;100.00
37206;BME280;23099;42.636;23.198;2023-09-18T05:39:48;92517.66;;;14.39;100.00
37206;BME280;23099;42.636;23.198;2023-09-18T05:42:14;92521.84;;;14.37;100.00
37206;BME280;23099;42.636;23.198;2023-09-18T05:44:41;92510.41;;;14.43;100.00
37206;BME280;23099;42.636;23.198;2023-09-18T05:47:08;92514.25;;;14.46;100.00
37206;BME280;23099;42.636;23.198;2023-09-18T05:49:35;92515.13;;;14.57;100.00
37206;BME280;23099;42.636;23.198;2023-09-18T05:52:01;92517.88;;;14.64;100.00
37206;BME280;23099;42.636;23.198;2023-09-18T05:54:29;92521.38;;;14.72;100.00
37206;BME280;23099;42.636;23.198;2023-09-18T05:56:56;92519.53;;;14.79;100.00
37206;BME280;23099;42.636;23.198;2023-09-18T05:59:23;92518.44;;;14.84;100.00
37206;BME280;23099;42.636;23.198;2023-09-18T06:01:49;92517.69;;;14.91;100.00
37206;BME280;23099;42.636;23.198;2023-09-18T06:04:19;92515.06;;;14.98;100.00
37206;BME280;23099;42.636;23.198;2023-09-18T06:06:46;92517.00;;;15.04;100.00
37206;BME280;23099;42.636;23.198;2023-09-18T06:09:13;92515.91;;;15.12;100.00
37206;BME280;23099;42.636;23.198;2023-09-18T06:11:41;92529.84;;;15.25;100.00
37206;BME280;23099;42.636;23.198;2023-09-18T06:14:08;92522.97;;;15.35;100.00
37206;BME280;23099;42.636;23.198;2023-09-18T06:16:34;92521.09;;;15.42;100.00
37206;BME280;23099;42.636;23.198;2023-09-18T06:19:01;92528.13;;;15.58;100.00
37206;BME280;23099;42.636;23.198;2023-09-18T06:21:28;92532.78;;;15.68;100.00
37206;BME280;23099;42.636;23.198;2023-09-18T06:23:54;92525.84;;;15.67;100.00
37206;BME280;23099;42.636;23.198;2023-09-18T06:26:22;92530.91;;;15.79;100.00
37206;BME280;23099;42.636;23.198;2023-09-18T06:28:50;92532.47;;;15.90;100.00
37206;BME280;23099;42.636;23.198;2023-09-18T06:31:17;92525.19;;;15.98;100.00
37206;BME280;23099;42.636;23.198;2023-09-18T06:33:44;92523.69;;;16.08;100.00
37206;BME280;23099;42.636;23.198;2023-09-18T06:36:11;92529.47;;;16.20;100.00
37206;BME280;23099;42.636;23.198;2023-09-18T06:38:38;92539.50;;;16.23;100.00
37206;BME280;23099;42.636;23.198;2023-09-18T06:41:04;92531.81;;;16.33;100.00
37206;BME280;23099;42.636;23.198;2023-09-18T06:43:31;92528.75;;;16.41;100.00
37206;BME280;23099;42.636;23.198;2023-09-18T06:45:59;92529.94;;;16.44;100.00
37206;BME280;23099;42.636;23.198;2023-09-18T06:48:26;92529.53;;;16.52;100.00
37206;BME280;23099;42.636;23.198;2023-09-18T06:50:57;92521.44;;;16.59;100.00
37206;BME280;23099;42.636;23.198;2023-09-18T06:53:25;92530.34;;;16.67;100.00
37206;BME280;23099;42.636;23.198;2023-09-18T06:55:52;92521.88;;;16.76;100.00
37206;BME280;23099;42.636;23.198;2023-09-18T06:58:18;92527.28;;;16.79;100.00
37206;BME280;23099;42.636;23.198;2023-09-18T07:00:45;92516.47;;;16.83;100.00
37206;BME280;23099;42.636;23.198;2023-09-18T07:03:14;92525.72;;;16.92;100.00
37206;BME280;23099;42.636;23.198;2023-09-18T07:05:42;92521.09;;;16.93;100.00
37206;BME280;23099;42.636;23.198;2023-09-18T07:08:09;92528.81;;;16.94;100.00
37206;BME280;23099;42.636;23.198;2023-09-18T07:10:37;92529.97;;;16.90;100.00
37206;BME280;23099;42.636;23.198;2023-09-18T07:13:03;92524.19;;;16.88;100.00
37206;BME280;23099;42.636;23.198;2023-09-18T07:15:30;92521.47;;;16.95;100.00
37206;BME280;23099;42.636;23.198;2023-09-18T07:17:57;92526.88;;;17.02;100.00
37206;BME280;23099;42.636;23.198;2023-09-18T07:20:25;92524.94;;;17.06;100.00
37206;BME280;23099;42.636;23.198;2023-09-18T07:22:52;92528.81;;;17.12;100.00
37206;BME280;23099;42.636;23.198;2023-09-18T07:25:19;92540.75;;;17.15;100.00
37206;BME280;23099;42.636;23.198;2023-09-18T07:27:45;92530.72;;;17.15;100.00
37206;BME280;23099;42.636;23.198;2023-09-18T07:30:13;92534.19;;;17.23;100.00
37206;BME280;23099;42.636;23.198;2023-09-18T07:32:41;92539.19;;;17.28;100.00
37206;BME280;23099;42.636;23.198;2023-09-18T07:35:09;92541.13;;;17.31;99.89
37206;BME280;23099;42.636;23.198;2023-09-18T07:37:37;92539.94;;;17.36;99.88
37206;BME280;23099;42.636;23.198;2023-09-18T07:40:05;92532.22;;;17.41;99.84
37206;BME280;23099;42.636;23.198;2023-09-18T07:42:32;92530.28;;;17.45;99.59
37206;BME280;23099;42.636;23.198;2023-09-18T07:44:58;92537.22;;;17.50;99.56
37206;BME280;23099;42.636;23.198;2023-09-18T07:47:25;92537.22;;;17.46;99.54
37206;BME280;23099;42.636;23.198;2023-09-18T07:49:52;92534.50;;;17.50;99.94
37206;BME280;23099;42.636;23.198;2023-09-18T07:52:19;92529.88;;;17.54;99.50
37206;BME280;23099;42.636;23.198;2023-09-18T07:54:47;92531.81;;;17.57;99.75
37206;BME280;23099;42.636;23.198;2023-09-18T07:57:15;92534.13;;;17.58;100.00
37206;BME280;23099;42.636;23.198;2023-09-18T07:59:42;92525.25;;;17.58;100.00
37206;BME280;23099;42.636;23.198;2023-09-18T08:02:09;92529.88;;;17.68;99.72
37206;BME280;23099;42.636;23.198;2023-09-18T08:04:36;92523.28;;;17.73;100.00
37206;BME280;23099;42.636;23.198;2023-09-18T08:07:03;92529.44;;;17.80;99.53
37206;BME280;23099;42.636;23.198;2023-09-18T08:09:31;92522.81;;;17.92;99.02
37206;BME280;23099;42.636;23.198;2023-09-18T08:12:03;92525.84;;;18.05;98.55
37206;BME280;23099;42.636;23.198;2023-09-18T08:14:29;92516.88;;;18.18;97.64
37206;BME280;23099;42.636;23.198;2023-09-18T08:16:56;92516.88;;;18.22;98.27
37206;BME280;23099;42.636;23.198;2023-09-18T08:19:23;92521.13;;;18.23;97.45
37206;BME280;23099;42.636;23.198;2023-09-18T08:21:52;92511.78;;;18.34;96.77
37206;BME280;23099;42.636;23.198;2023-09-18T08:24:19;92505.53;;;18.45;95.96
37206;BME280;23099;42.636;23.198;2023-09-18T08:26:46;92502.78;;;18.52;95.70
37206;BME280;23099;42.636;23.198;2023-09-18T08:29:14;92495.81;;;18.51;94.83
37206;BME280;23099;42.636;23.198;2023-09-18T08:31:41;92507.03;;;18.60;93.83
37206;BME280;23099;42.636;23.198;2023-09-18T08:34:08;92501.94;;;18.65;93.93
37206;BME280;23099;42.636;23.198;2023-09-18T08:36:35;92496.44;;;18.76;93.33
37206;BME280;23099;42.636;23.198;2023-09-18T08:39:02;92500.63;;;18.88;91.93
37206;BME280;23099;42.636;23.198;2023-09-18T08:41:31;92489.25;;;19.03;91.46
37206;BME280;23099;42.636;23.198;2023-09-18T08:44:02;92491.13;;;19.10;91.20
37206;BME280;23099;42.636;23.198;2023-09-18T08:46:31;92490.69;;;19.15;90.46
37206;BME280;23099;42.636;23.198;2023-09-18T08:49:00;92481.66;;;19.29;90.87
37206;BME280;23099;42.636;23.198;2023-09-18T08:51:27;92488.50;;;19.40;89.84
37206;BME280;23099;42.636;23.198;2023-09-18T08:53:56;92490.31;;;19.54;89.06
37206;BME280;23099;42.636;23.198;2023-09-18T08:56:23;92488.66;;;19.64;87.51
37206;BME280;23099;42.636;23.198;2023-09-18T08:58:50;92490.53;;;19.70;87.42
37206;BME280;23099;42.636;23.198;2023-09-18T09:01:18;92490.56;;;19.67;86.66
37206;BME280;23099;42.636;23.198;2023-09-18T09:03:46;92489.81;;;19.63;86.19
37206;BME280;23099;42.636;23.198;2023-09-18T09:06:13;92484.66;;;19.75;86.47
37206;BME280;23099;42.636;23.198;2023-09-18T09:08:40;92490.38;;;19.85;85.60
37206;BME280;23099;42.636;23.198;2023-09-18T09:11:07;92480.19;;;19.92;85.57
37206;BME280;23099;42.636;23.198;2023-09-18T09:13:33;92481.28;;;19.98;83.78
37206;BME280;23099;42.636;23.198;2023-09-18T09:16:00;92473.00;;;20.09;83.62
37206;BME280;23099;42.636;23.198;2023-09-18T09:18:29;92477.97;;;20.14;81.26
37206;BME280;23099;42.636;23.198;2023-09-18T09:20:59;92478.78;;;20.11;79.52
37206;BME280;23099;42.636;23.198;2023-09-18T09:23:27;92469.38;;;20.19;79.40
37206;BME280;23099;42.636;23.198;2023-09-18T09:25:54;92470.09;;;20.23;79.29
37206;BME280;23099;42.636;23.198;2023-09-18T09:28:30;92469.63;;;20.28;79.77
37206;BME280;23099;42.636;23.198;2023-09-18T09:31:02;92475.38;;;20.34;78.13
37206;BME280;23099;42.636;23.198;2023-09-18T09:33:29;92461.31;;;20.42;79.74
37206;BME280;23099;42.636;23.198;2023-09-18T09:35:57;92469.81;;;20.44;78.04
37206;BME280;23099;42.636;23.198;2023-09-18T09:38:29;92461.06;;;20.60;77.25
37206;BME280;23099;42.636;23.198;2023-09-18T09:40:57;92462.84;;;20.70;77.06
37206;BME280;23099;42.636;23.198;2023-09-18T09:43:25;92464.50;;;20.88;76.19
37206;BME280;23099;42.636;23.198;2023-09-18T09:45:56;92466.25;;;20.98;73.26
37206;BME280;23099;42.636;23.198;2023-09-18T09:48:24;92453.13;;;20.93;74.37
37206;BME280;23099;42.636;23.198;2023-09-18T09:50:51;92455.81;;;20.96;73.58
37206;BME280;23099;42.636;23.198;2023-09-18T09:53:41;92446.66;;;21.10;72.88
37206;BME280;23099;42.636;23.198;2023-09-18T09:56:09;92450.72;;;21.22;71.07
37206;BME280;23099;42.636;23.198;2023-09-18T09:58:35;92443.69;;;21.24;70.23
37206;BME280;23099;42.636;23.198;2023-09-18T10:01:03;92449.38;;;21.33;68.86
37206;BME280;23099;42.636;23.198;2023-09-18T10:03:36;92446.94;;;21.39;67.78
37206;BME280;23099;42.636;23.198;2023-09-18T10:06:04;92440.38;;;21.36;66.37
37206;BME280;23099;42.636;23.198;2023-09-18T10:08:34;92444.78;;;21.50;68.12
37206;BME280;23099;42.636;23.198;2023-09-18T10:11:05;92446.88;;;21.62;66.80
37206;BME280;23099;42.636;23.198;2023-09-18T10:13:40;92444.56;;;21.80;66.52
37206;BME280;23099;42.636;23.198;2023-09-18T10:16:09;92441.56;;;21.95;65.62
37206;BME280;23099;42.636;23.198;2023-09-18T10:18:42;92439.97;;;22.17;64.29
37206;BME280;23099;42.636;23.198;2023-09-18T10:21:18;92438.28;;;22.39;62.39
37206;BME280;23099;42.636;23.198;2023-09-18T10:23:59;92441.03;;;22.55;62.39
37206;BME280;23099;42.636;23.198;2023-09-18T10:26:32;92429.91;;;22.82;61.84
37206;BME280;23099;42.636;23.198;2023-09-18T10:29:04;92423.59;;;23.02;57.31
37206;BME280;23099;42.636;23.198;2023-09-18T10:31:34;92419.81;;;23.28;60.95
37206;BME280;23099;42.636;23.198;2023-09-18T10:34:03;92419.88;;;23.70;59.94
37206;BME280;23099;42.636;23.198;2023-09-18T10:36:32;92428.47;;;23.97;56.88
37206;BME280;23099;42.636;23.198;2023-09-18T10:39:02;92415.44;;;24.30;56.55
37206;BME280;23099;42.636;23.198;2023-09-18T10:41:33;92415.66;;;24.61;54.11
37206;BME280;23099;42.636;23.198;2023-09-18T10:44:01;92406.66;;;24.86;52.17
37206;BME280;23099;42.636;23.198;2023-09-18T10:46:29;92408.06;;;25.03;50.47
37206;BME280;23099;42.636;23.198;2023-09-18T10:48:58;92416.63;;;25.27;50.57
37206;BME280;23099;42.636;23.198;2023-09-18T10:51:25;92407.34;;;25.59;50.65
37206;BME280;23099;42.636;23.198;2023-09-18T10:53:53;92404.31;;;25.79;48.32
37206;BME280;23099;42.636;23.198;2023-09-18T10:56:24;92405.69;;;25.83;46.93
37206;BME280;23099;42.636;23.198;2023-09-18T10:58:56;92408.56;;;26.01;46.93
37206;BME280;23099;42.636;23.198;2023-09-18T11:01:24;92402.91;;;26.27;45.99
37206;BME280;23099;42.636;23.198;2023-09-18T11:03:52;92402.31;;;26.54;45.85
37206;BME280;23099;42.636;23.198;2023-09-18T11:06:19;92404.03;;;26.69;44.27
37206;BME280;23099;42.636;23.198;2023-09-18T11:08:56;92400.34;;;26.94;44.20
37206;BME280;23099;42.636;23.198;2023-09-18T11:11:28;92397.16;;;27.05;42.06
37206;BME280;23099;42.636;23.198;2023-09-18T11:13:56;92391.06;;;27.10;42.10
37206;BME280;23099;42.636;23.198;2023-09-18T11:16:38;92382.53;;;27.17;42.46
37206;BME280;23099;42.636;23.198;2023-09-18T11:19:08;92380.69;;;27.14;40.88
37206;BME280;23099;42.636;23.198;2023-09-18T11:21:36;92388.63;;;27.30;42.68
37206;BME280;23099;42.636;23.198;2023-09-18T11:24:04;92389.25;;;27.43;42.17
37206;BME280;23099;42.636;23.198;2023-09-18T11:26:34;92387.47;;;27.59;41.57
37206;BME280;23099;42.636;23.198;2023-09-18T11:29:01;92388.38;;;27.65;39.96
37206;BME280;23099;42.636;23.198;2023-09-18T11:31:44;92378.00;;;27.78;39.56
37206;BME280;23099;42.636;23.198;2023-09-18T11:34:15;92376.16;;;27.75;40.54
37206;BME280;23099;42.636;23.198;2023-09-18T11:36:46;92376.44;;;27.86;39.77
37206;BME280;23099;42.636;23.198;2023-09-18T11:39:12;92377.06;;;27.81;39.74
37206;BME280;23099;42.636;23.198;2023-09-18T11:41:41;92367.31;;;27.80;39.60
37206;BME280;23099;42.636;23.198;2023-09-18T11:44:33;92374.59;;;28.01;39.76
37206;BME280;23099;42.636;23.198;2023-09-18T11:47:07;92363.28;;;28.08;39.24
37206;BME280;23099;42.636;23.198;2023-09-18T11:49:38;92368.75;;;28.17;39.95
37206;BME280;23099;42.636;23.198;2023-09-18T11:52:07;92368.78;;;28.08;38.89
37206;BME280;23099;42.636;23.198;2023-09-18T11:54:34;92364.09;;;27.82;39.01
37206;BME280;23099;42.636;23.198;2023-09-18T11:57:04;92356.19;;;27.65;39.58
37206;BME280;23099;42.636;23.198;2023-09-18T11:59:36;92353.28;;;27.60;39.09
37206;BME280;23099;42.636;23.198;2023-09-18T12:02:04;92354.34;;;27.62;39.21
37206;BME280;23099;42.636;23.198;2023-09-18T12:04:34;92356.34;;;27.62;39.38
37206;BME280;23099;42.636;23.198;2023-09-18T12:07:01;92364.69;;;27.86;40.12
37206;BME280;23099;42.636;23.198;2023-09-18T12:09:29;92365.41;;;28.04;40.19
37206;BME280;23099;42.636;23.198;2023-09-18T12:11:56;92352.13;;;28.03;38.38
37206;BME280;23099;42.636;23.198;2023-09-18T12:14:25;92353.06;;;28.09;39.19
37206;BME280;23099;42.636;23.198;2023-09-18T12:16:51;92361.63;;;27.93;38.47
37206;BME280;23099;42.636;23.198;2023-09-18T12:19:18;92348.50;;;27.88;38.19
37206;BME280;23099;42.636;23.198;2023-09-18T12:21:46;92351.28;;;27.78;38.61
37206;BME280;23099;42.636;23.198;2023-09-18T12:24:14;92345.34;;;27.53;40.41
37206;BME280;23099;42.636;23.198;2023-09-18T12:26:41;92338.63;;;27.44;39.41
37206;BME280;23099;42.636;23.198;2023-09-18T12:29:08;92351.28;;;27.51;40.22
37206;BME280;23099;42.636;23.198;2023-09-18T12:31:38;92342.28;;;27.51;39.46
37206;BME280;23099;42.636;23.198;2023-09-18T12:34:14;92347.78;;;27.60;39.91
37206;BME280;23099;42.636;23.198;2023-09-18T12:36:41;92338.47;;;27.48;39.74
37206;BME280;23099;42.636;23.198;2023-09-18T12:39:08;92347.94;;;27.20;40.80
37206;BME280;23099;42.636;23.198;2023-09-18T12:41:36;92348.22;;;27.13;40.79
37206;BME280;23099;42.636;23.198;2023-09-18T12:44:05;92343.16;;;26.93;41.05
37206;BME280;23099;42.636;23.198;2023-09-18T12:46:34;92337.34;;;26.82;41.51
37206;BME280;23099;42.636;23.198;2023-09-18T12:49:16;92336.72;;;26.68;41.25